createdAt,value
2018-07-30T00:01:02.874Z,22.10
2018-07-30T00:03:31.257Z,22.00
2018-07-30T00:05:59.696Z,22.00
2018-07-30T00:08:28.170Z,22.10
2018-07-30T00:10:56.688Z,22.10
2018-07-30T00:13:25.070Z,22.00
2018-07-30T00:15:53.536Z,22.00
2018-07-30T00:18:22.076Z,22.00
2018-07-30T00:20:50.456Z,22.00
2018-07-30T00:23:19.897Z,21.90
2018-07-30T00:25:48.592Z,21.90
2018-07-30T00:28:17.012Z,22.00
2018-07-30T00:30:45.764Z,21.90
2018-07-30T00:33:14.162Z,21.90
2018-07-30T00:35:42.516Z,21.90
2018-07-30T00:38:11.232Z,21.80
2018-07-30T00:40:39.648Z,21.90
2018-07-30T00:45:36.463Z,21.90
2018-07-30T00:48:05.314Z,21.90
2018-07-30T00:50:33.681Z,21.90
2018-07-30T00:53:02.105Z,21.90
2018-07-30T00:55:30.528Z,21.90
2018-07-30T00:57:58.892Z,21.90
2018-07-30T01:00:27.291Z,21.90
2018-07-30T01:02:55.744Z,21.90
2018-07-30T01:05:24.117Z,21.90
2018-07-30T01:07:53.100Z,21.90
2018-07-30T01:10:21.453Z,21.90
2018-07-30T01:12:50.564Z,21.90
2018-07-30T01:15:19.422Z,21.80
2018-07-30T01:17:48.664Z,21.90
2018-07-30T01:20:17.072Z,21.90
2018-07-30T01:22:45.464Z,21.90
2018-07-30T01:25:13.863Z,21.90
2018-07-30T01:27:42.340Z,21.90
2018-07-30T01:30:10.717Z,21.90
2018-07-30T01:32:39.084Z,21.90
2018-07-30T01:35:07.424Z,21.90
2018-07-30T01:37:35.868Z,21.90
2018-07-30T01:40:04.300Z,21.90
2018-07-30T01:42:32.644Z,21.90
2018-07-30T01:45:01.008Z,21.90
2018-07-30T01:47:29.376Z,21.90
2018-07-30T01:49:57.771Z,21.90
2018-07-30T01:52:26.384Z,21.90
2018-07-30T01:54:54.795Z,21.90
2018-07-30T01:57:23.222Z,21.90
2018-07-30T01:59:51.612Z,21.80
2018-07-30T02:02:20.152Z,21.80
2018-07-30T02:07:17.042Z,21.70
2018-07-30T02:09:45.632Z,21.70
2018-07-30T02:12:15.201Z,21.70
2018-07-30T02:14:44.014Z,21.70
2018-07-30T02:17:12.463Z,21.70
2018-07-30T02:22:08.920Z,21.60
2018-07-30T02:27:05.572Z,21.60
2018-07-30T02:29:34.424Z,21.60
2018-07-30T02:32:02.864Z,21.60
2018-07-30T02:34:31.196Z,21.50
2018-07-30T02:36:59.612Z,21.50
2018-07-30T02:39:27.984Z,21.40
2018-07-30T02:41:56.372Z,21.40
2018-07-30T02:46:52.948Z,21.40
2018-07-30T02:49:21.345Z,21.30
2018-07-30T02:51:50.960Z,21.30
2018-07-30T02:54:19.331Z,21.30
2018-07-30T02:56:47.736Z,21.30
2018-07-30T02:59:16.143Z,21.30
2018-07-30T03:04:12.665Z,21.40
2018-07-30T03:06:41.168Z,21.40
2018-07-30T03:09:10.660Z,21.40
2018-07-30T03:11:39.379Z,21.40
2018-07-30T03:14:08.000Z,21.40
2018-07-30T03:16:36.889Z,21.30
2018-07-30T03:19:05.763Z,21.20
2018-07-30T03:21:34.283Z,21.20
2018-07-30T03:24:02.721Z,21.20
2018-07-30T03:28:59.275Z,21.20
2018-07-30T03:31:27.669Z,21.10
2018-07-30T03:33:56.131Z,21.20
2018-07-30T03:36:24.492Z,21.20
2018-07-30T03:38:52.957Z,21.20
2018-07-30T03:41:21.383Z,21.20
2018-07-30T03:43:49.942Z,21.20
2018-07-30T03:46:18.395Z,21.20
2018-07-30T03:48:46.779Z,21.30
2018-07-30T03:51:15.653Z,21.20
2018-07-30T03:53:44.292Z,21.20
2018-07-30T03:56:13.128Z,21.20
2018-07-30T03:58:41.714Z,21.20
2018-07-30T04:01:10.120Z,21.20
2018-07-30T04:03:38.584Z,21.20
2018-07-30T04:06:07.597Z,21.20
2018-07-30T04:08:35.896Z,21.30
2018-07-30T04:11:04.320Z,21.30
2018-07-30T04:13:32.892Z,21.30
2018-07-30T04:16:01.332Z,21.20
2018-07-30T04:18:29.813Z,21.20
2018-07-30T04:23:26.509Z,21.20
2018-07-30T04:25:54.918Z,21.20
2018-07-30T04:28:23.576Z,21.20
2018-07-30T04:30:52.403Z,21.20
2018-07-30T04:33:21.105Z,21.20
2018-07-30T04:35:49.472Z,21.20
2018-07-30T04:38:17.867Z,21.20
2018-07-30T04:40:46.380Z,21.20
2018-07-30T04:43:15.034Z,21.20
2018-07-30T04:45:43.444Z,21.30
2018-07-30T04:48:11.860Z,21.40
2018-07-30T04:50:40.874Z,21.40
2018-07-30T04:53:09.267Z,21.50
2018-07-30T04:55:38.168Z,21.50
2018-07-30T04:58:06.846Z,21.50
2018-07-30T05:00:35.607Z,21.60
2018-07-30T05:03:06.298Z,21.60
2018-07-30T05:05:36.146Z,21.50
2018-07-30T05:08:04.710Z,21.60
2018-07-30T05:10:33.120Z,21.60
2018-07-30T05:13:02.010Z,21.60
2018-07-30T05:15:30.398Z,21.50
2018-07-30T05:17:58.900Z,21.50
2018-07-30T05:22:55.912Z,21.60
2018-07-30T05:25:24.395Z,21.60
2018-07-30T05:27:52.765Z,21.60
2018-07-30T05:30:21.169Z,21.70
2018-07-30T05:32:49.532Z,21.80
2018-07-30T05:35:18.136Z,21.90
2018-07-30T05:37:46.593Z,22.10
2018-07-30T05:40:15.232Z,22.20
2018-07-30T05:42:43.761Z,22.40
2018-07-30T05:45:12.220Z,22.50
2018-07-30T05:47:40.968Z,22.50
2018-07-30T05:50:09.516Z,22.60
2018-07-30T05:52:37.947Z,22.80
2018-07-30T05:55:06.486Z,22.80
2018-07-30T05:57:35.779Z,22.70
2018-07-30T06:00:05.057Z,22.70
2018-07-30T06:02:33.480Z,22.80
2018-07-30T06:05:02.609Z,22.80
2018-07-30T06:07:31.272Z,23.10
2018-07-30T06:09:59.900Z,23.50
2018-07-30T06:14:56.916Z,23.70
2018-07-30T06:17:25.369Z,23.10
2018-07-30T06:19:53.928Z,23.00
2018-07-30T06:22:23.597Z,23.40
2018-07-30T06:24:52.135Z,23.70
2018-07-30T06:27:20.868Z,23.40
2018-07-30T06:29:49.401Z,23.40
2018-07-30T06:32:17.910Z,23.40
2018-07-30T06:34:46.422Z,23.50
2018-07-30T06:37:15.863Z,23.80
2018-07-30T06:39:44.547Z,23.90
2018-07-30T06:42:13.084Z,23.90
2018-07-30T06:44:41.846Z,23.90
2018-07-30T06:47:10.401Z,23.80
2018-07-30T06:49:39.082Z,23.80
2018-07-30T06:52:07.866Z,23.70
2018-07-30T06:54:36.299Z,23.80
2018-07-30T06:57:05.105Z,23.60
2018-07-30T06:59:33.572Z,24.10
2018-07-30T07:04:30.192Z,24.70
2018-07-30T07:06:59.053Z,24.70
2018-07-30T07:09:27.460Z,24.90
2018-07-30T07:11:55.905Z,25.00
2018-07-30T07:14:24.433Z,25.10
2018-07-30T07:16:52.842Z,25.30
2018-07-30T07:19:21.296Z,25.20
2018-07-30T07:21:49.659Z,25.40
2018-07-30T07:24:18.308Z,25.60
2018-07-30T07:26:46.723Z,25.60
2018-07-30T07:29:15.136Z,25.50
2018-07-30T07:31:43.486Z,25.20
2018-07-30T07:34:12.212Z,25.30
2018-07-30T07:36:40.585Z,25.20
2018-07-30T07:39:09.898Z,25.40
2018-07-30T07:41:38.412Z,25.70
2018-07-30T07:44:06.788Z,25.70
2018-07-30T07:46:35.177Z,25.70
2018-07-30T07:51:33.103Z,26.20
2018-07-30T07:54:01.669Z,26.20
2018-07-30T07:58:58.568Z,26.90
2018-07-30T08:01:27.057Z,26.80
2018-07-30T08:03:55.755Z,26.70
2018-07-30T08:06:25.149Z,26.50
2018-07-30T08:08:53.885Z,26.80
2018-07-30T08:11:22.361Z,26.90
2018-07-30T08:13:51.181Z,26.70
2018-07-30T08:16:20.046Z,26.80
2018-07-30T08:21:16.652Z,27.10
2018-07-30T08:23:45.065Z,27.20
2018-07-30T08:26:15.119Z,27.00
2018-07-30T08:28:44.069Z,27.30
2018-07-30T08:31:12.601Z,27.50
2018-07-30T08:33:41.061Z,27.40
2018-07-30T08:36:09.620Z,27.40
2018-07-30T08:41:07.660Z,27.30
2018-07-30T08:43:36.048Z,27.50
2018-07-30T08:46:04.594Z,27.50
2018-07-30T08:48:33.116Z,27.50
2018-07-30T08:51:01.596Z,27.40
2018-07-30T08:53:29.985Z,27.60
2018-07-30T08:55:58.685Z,27.50
2018-07-30T08:58:27.192Z,27.70
2018-07-30T09:00:55.660Z,27.90
2018-07-30T09:03:24.200Z,27.90
2018-07-30T09:05:52.676Z,28.20
2018-07-30T09:08:21.072Z,28.10
2018-07-30T09:10:49.536Z,28.10
2018-07-30T09:13:18.562Z,28.50
2018-07-30T09:15:47.497Z,29.00
2018-07-30T09:18:15.970Z,29.20
2018-07-30T09:25:43.315Z,28.70
2018-07-30T09:28:12.684Z,28.90
2018-07-30T09:30:41.139Z,28.90
2018-07-30T09:33:09.815Z,29.10
2018-07-30T09:35:38.221Z,29.10
2018-07-30T09:38:06.568Z,29.10
2018-07-30T09:40:35.198Z,29.30
2018-07-30T09:43:03.684Z,29.40
2018-07-30T09:45:32.069Z,29.60
2018-07-30T09:48:00.488Z,29.10
2018-07-30T09:50:28.978Z,29.10
2018-07-30T09:52:57.255Z,29.20
2018-07-30T09:55:25.851Z,29.20
2018-07-30T09:57:54.252Z,29.60
2018-07-30T10:00:28.048Z,29.90
2018-07-30T10:02:56.521Z,30.10
2018-07-30T10:05:24.909Z,30.00
2018-07-30T10:07:53.511Z,29.60
2018-07-30T10:10:21.926Z,29.60
2018-07-30T10:12:50.292Z,30.10
2018-07-30T10:15:19.064Z,29.60
2018-07-30T10:17:48.030Z,30.10
2018-07-30T10:20:16.408Z,30.30
2018-07-30T10:22:45.041Z,30.80
2018-07-30T10:25:13.628Z,30.50
2018-07-30T10:27:42.160Z,30.00
2018-07-30T10:30:10.796Z,29.90
2018-07-30T10:32:39.491Z,30.10
2018-07-30T10:35:08.273Z,30.30
2018-07-30T10:37:36.694Z,30.30
2018-07-30T10:40:05.232Z,30.50
2018-07-30T10:42:33.619Z,30.50
2018-07-30T10:45:02.002Z,30.30
2018-07-30T10:47:30.372Z,30.30
2018-07-30T10:49:58.786Z,30.60
2018-07-30T10:52:27.288Z,30.10
2018-07-30T10:57:23.803Z,30.90
2018-07-30T10:59:52.361Z,31.40
2018-07-30T11:02:21.058Z,31.40
2018-07-30T11:04:49.913Z,31.30
2018-07-30T11:07:20.614Z,31.30
2018-07-30T11:09:49.094Z,31.50
2018-07-30T11:12:17.507Z,31.30
2018-07-30T11:14:46.399Z,31.30
2018-07-30T11:17:15.403Z,30.70
2018-07-30T11:19:43.904Z,31.10
2018-07-30T11:22:12.778Z,31.70
2018-07-30T11:24:42.092Z,31.90
2018-07-30T11:27:11.353Z,31.50
2018-07-30T11:32:08.365Z,31.40
2018-07-30T11:34:36.773Z,31.30
2018-07-30T11:37:05.642Z,31.60
2018-07-30T11:39:34.397Z,31.70
2018-07-30T11:42:02.885Z,31.20
2018-07-30T11:44:31.399Z,32.00
2018-07-30T11:47:00.347Z,32.00
2018-07-30T11:49:29.391Z,31.90
2018-07-30T11:51:58.086Z,32.10
2018-07-30T11:54:26.542Z,32.50
2018-07-30T11:56:54.875Z,32.10
2018-07-30T11:59:23.444Z,31.70
2018-07-30T12:01:52.442Z,31.00
2018-07-30T12:04:21.183Z,31.30
2018-07-30T12:06:49.590Z,32.10
2018-07-30T12:09:18.106Z,32.10
2018-07-30T12:11:46.531Z,31.50
2018-07-30T12:14:17.936Z,31.50
2018-07-30T12:16:46.788Z,32.40
2018-07-30T12:19:15.707Z,32.70
2018-07-30T12:21:44.847Z,32.90
2018-07-30T12:24:13.289Z,32.40
2018-07-30T12:29:10.413Z,31.20
2018-07-30T12:31:38.876Z,31.30
2018-07-30T12:34:07.796Z,31.70
2018-07-30T12:36:36.398Z,31.90
2018-07-30T12:39:07.600Z,31.60
2018-07-30T12:41:36.315Z,31.40
2018-07-30T12:44:04.840Z,31.50
2018-07-30T12:46:33.471Z,31.70
2018-07-30T12:49:02.062Z,31.50
2018-07-30T12:51:30.601Z,31.50
2018-07-30T12:53:59.037Z,32.00
2018-07-30T12:56:27.662Z,32.00
2018-07-30T12:58:56.050Z,31.60
2018-07-30T13:01:24.447Z,31.40
2018-07-30T13:03:52.867Z,31.90
2018-07-30T13:06:21.314Z,32.10
2018-07-30T13:08:49.706Z,32.00
2018-07-30T13:11:18.369Z,32.70
2018-07-30T13:13:46.784Z,32.80
2018-07-30T13:16:15.338Z,32.70
2018-07-30T13:18:44.401Z,32.60
2018-07-30T13:21:13.012Z,32.90
2018-07-30T13:23:41.743Z,32.90
2018-07-30T13:26:10.245Z,32.50
2018-07-30T13:28:38.763Z,32.90
2018-07-30T13:31:07.190Z,32.10
2018-07-30T13:33:35.581Z,32.60
2018-07-30T13:38:32.293Z,32.10
2018-07-30T13:41:00.805Z,32.30
2018-07-30T13:43:29.256Z,32.20
2018-07-30T13:45:57.881Z,32.00
2018-07-30T13:48:26.477Z,32.40
2018-07-30T13:53:23.196Z,32.70
2018-07-30T13:55:51.978Z,32.40
2018-07-30T13:58:20.428Z,32.60
2018-07-30T14:00:49.101Z,32.80
2018-07-30T14:03:17.664Z,33.40
2018-07-30T14:08:14.678Z,32.90
2018-07-30T14:10:43.532Z,33.30
2018-07-30T14:15:40.778Z,33.90
2018-07-30T14:18:09.694Z,33.90
2018-07-30T14:20:38.536Z,34.10
2018-07-30T14:23:07.779Z,33.70
2018-07-30T14:28:04.464Z,32.30
2018-07-30T14:30:33.268Z,32.40
2018-07-30T14:33:02.250Z,32.70
2018-07-30T14:35:30.777Z,33.10
2018-07-30T14:37:59.287Z,33.40
2018-07-30T14:42:55.925Z,32.90
2018-07-30T14:45:24.372Z,33.40
2018-07-30T14:47:53.054Z,33.60
2018-07-30T14:50:21.441Z,33.00
2018-07-30T14:52:49.883Z,33.30
2018-07-30T14:55:18.617Z,33.00
2018-07-30T14:57:47.335Z,33.00
2018-07-30T15:00:16.457Z,33.60
2018-07-30T15:02:44.840Z,33.10
2018-07-30T15:05:16.852Z,32.90
2018-07-30T15:07:45.344Z,32.60
2018-07-30T15:10:14.691Z,32.50
2018-07-30T15:12:43.908Z,32.70
2018-07-30T15:15:12.353Z,33.10
2018-07-30T15:20:08.906Z,33.10
2018-07-30T15:22:37.407Z,32.90
2018-07-30T15:25:06.096Z,32.70
2018-07-30T15:27:34.488Z,32.40
2018-07-30T15:30:03.696Z,32.30
2018-07-30T15:32:32.188Z,32.30
2018-07-30T15:35:01.561Z,32.20
2018-07-30T15:37:30.544Z,32.40
2018-07-30T15:40:00.031Z,32.30
2018-07-30T15:42:28.424Z,32.20
2018-07-30T15:44:57.116Z,32.30
2018-07-30T15:47:25.822Z,31.90
2018-07-30T15:49:54.688Z,32.00
2018-07-30T15:52:23.129Z,31.80
2018-07-30T15:54:51.656Z,31.80
2018-07-30T15:57:20.014Z,31.30
2018-07-30T15:59:48.779Z,31.40
2018-07-30T16:02:17.310Z,31.40
2018-07-30T16:04:45.749Z,31.40
2018-07-30T16:09:43.416Z,31.70
2018-07-30T16:12:11.903Z,31.90
2018-07-30T16:14:40.415Z,31.70
2018-07-30T16:17:10.765Z,31.30
2018-07-30T16:19:39.156Z,31.10
2018-07-30T16:22:07.965Z,31.00
2018-07-30T16:24:36.627Z,31.00
2018-07-30T16:27:05.125Z,31.10
2018-07-30T16:29:34.172Z,31.20
2018-07-30T16:32:02.579Z,31.20
2018-07-30T16:34:30.989Z,31.10
2018-07-30T16:37:00.442Z,31.00
2018-07-30T16:39:29.000Z,30.80
2018-07-30T16:41:58.041Z,30.60
2018-07-30T16:44:26.694Z,30.40
2018-07-30T16:49:23.194Z,29.90
2018-07-30T16:51:51.792Z,29.80
2018-07-30T16:54:20.292Z,29.80
2018-07-30T16:56:48.964Z,29.80
2018-07-30T16:59:18.676Z,29.80
2018-07-30T17:01:48.704Z,29.70
2018-07-30T17:04:17.532Z,29.70
2018-07-30T17:06:46.288Z,29.80
2018-07-30T17:09:14.681Z,29.80
2018-07-30T17:14:12.636Z,29.80
2018-07-30T17:16:41.067Z,29.60
2018-07-30T17:19:09.628Z,29.40
2018-07-30T17:21:38.496Z,29.30
2018-07-30T17:24:06.972Z,29.30
2018-07-30T17:26:35.737Z,29.20
2018-07-30T17:29:04.209Z,29.20
2018-07-30T17:31:32.612Z,29.30
2018-07-30T17:34:01.148Z,29.40
2018-07-30T17:36:29.832Z,29.50
2018-07-30T17:38:58.467Z,29.30
2018-07-30T17:41:26.930Z,29.30
2018-07-30T17:43:56.360Z,29.30
2018-07-30T17:46:24.840Z,29.20
2018-07-30T17:48:53.227Z,29.10
2018-07-30T17:51:21.808Z,29.10
2018-07-30T17:53:50.268Z,29.10
2018-07-30T17:56:18.996Z,29.00
2018-07-30T17:58:47.744Z,28.90
2018-07-30T18:01:16.320Z,28.80
2018-07-30T18:03:45.388Z,28.70
2018-07-30T18:06:14.220Z,28.60
2018-07-30T18:08:42.834Z,28.70
2018-07-30T18:11:11.252Z,28.60
2018-07-30T18:13:40.198Z,28.50
2018-07-30T18:16:08.608Z,28.50
2018-07-30T18:18:37.170Z,28.50
2018-07-30T18:21:05.840Z,28.40
2018-07-30T18:23:34.355Z,28.40
2018-07-30T18:28:31.461Z,28.30
2018-07-30T18:30:59.864Z,28.20
2018-07-30T18:33:28.308Z,28.20
2018-07-30T18:35:57.335Z,28.20
2018-07-30T18:38:25.740Z,28.10
2018-07-30T18:40:54.176Z,28.00
2018-07-30T18:43:22.638Z,28.20
2018-07-30T18:45:52.195Z,28.00
2018-07-30T18:48:20.743Z,27.90
2018-07-30T18:50:49.253Z,27.90
2018-07-30T18:53:17.585Z,27.90
2018-07-30T18:55:46.024Z,27.80
2018-07-30T18:58:14.647Z,27.80
2018-07-30T19:00:43.096Z,27.80
2018-07-30T19:03:11.661Z,27.80
2018-07-30T19:05:40.442Z,27.80
2018-07-30T19:08:08.890Z,27.70
2018-07-30T19:10:38.116Z,27.70
2018-07-30T19:13:06.609Z,27.60
2018-07-30T19:15:35.049Z,27.50
2018-07-30T19:18:03.434Z,27.50
2018-07-30T19:20:32.022Z,27.30
2018-07-30T19:23:01.469Z,26.60
2018-07-30T19:25:30.275Z,25.70
2018-07-30T19:27:58.765Z,25.30
2018-07-30T19:30:27.516Z,25.20
2018-07-30T19:32:56.110Z,25.00
2018-07-30T19:35:24.539Z,24.70
2018-07-30T19:37:53.432Z,24.50
2018-07-30T19:40:22.092Z,24.60
2018-07-30T19:45:18.900Z,24.30
2018-07-30T19:47:47.378Z,24.20
2018-07-30T19:50:15.855Z,24.00
2018-07-30T19:52:44.357Z,23.90
2018-07-30T19:55:13.095Z,23.90
2018-07-30T19:57:41.905Z,23.60
2018-07-30T20:00:11.189Z,23.60
2018-07-30T20:02:39.836Z,23.50
2018-07-30T20:05:08.927Z,23.60
2018-07-30T20:07:37.360Z,23.50
2018-07-30T20:10:05.856Z,23.60
2018-07-30T20:12:34.473Z,23.60
2018-07-30T20:15:02.966Z,23.50
2018-07-30T20:17:31.411Z,23.40
2018-07-30T20:20:00.549Z,23.40
2018-07-30T20:22:29.008Z,23.40
2018-07-30T20:24:57.459Z,23.20
2018-07-30T20:27:26.419Z,23.20
2018-07-30T20:29:55.040Z,23.10
2018-07-30T20:32:24.384Z,23.10
2018-07-30T20:34:52.812Z,23.00
2018-07-30T20:37:21.290Z,23.00
2018-07-30T20:39:49.697Z,23.00
2018-07-30T20:42:18.197Z,22.90
2018-07-30T20:44:47.058Z,22.90
2018-07-30T20:49:44.139Z,22.90
2018-07-30T20:52:12.916Z,22.80
2018-07-30T20:54:41.324Z,22.70
2018-07-30T20:57:10.680Z,22.70
2018-07-30T20:59:39.208Z,22.70
2018-07-30T21:02:07.947Z,22.70
2018-07-30T21:04:36.423Z,22.60
2018-07-30T21:07:05.208Z,22.60
2018-07-30T21:12:01.881Z,22.40
2018-07-30T21:14:30.712Z,22.30
2018-07-30T21:16:59.448Z,22.30
2018-07-30T21:19:28.216Z,22.40
2018-07-30T21:21:56.686Z,22.40
2018-07-30T21:24:25.492Z,22.40
2018-07-30T21:26:54.472Z,22.30
2018-07-30T21:29:23.291Z,22.40
2018-07-30T21:31:51.828Z,22.10
2018-07-30T21:34:20.293Z,22.10
2018-07-30T21:36:48.935Z,22.00
2018-07-30T21:39:17.419Z,22.00
2018-07-30T21:41:46.338Z,21.80
2018-07-30T21:44:14.934Z,21.90
2018-07-30T21:46:43.804Z,21.80
2018-07-30T21:49:16.710Z,22.00
2018-07-30T21:51:45.288Z,21.90
2018-07-30T21:54:14.267Z,22.00
2018-07-30T21:56:46.416Z,22.00
2018-07-30T21:59:14.914Z,21.90
2018-07-30T22:01:43.336Z,21.80
2018-07-30T22:04:11.736Z,21.80
2018-07-30T22:06:40.388Z,21.70
2018-07-30T22:09:14.393Z,21.60
2018-07-30T22:11:43.384Z,21.80
2018-07-30T22:14:12.067Z,21.60
2018-07-30T22:16:40.671Z,21.50
2018-07-30T22:19:11.914Z,21.50
2018-07-30T22:21:40.469Z,21.40
2018-07-30T22:24:09.132Z,21.30
2018-07-30T22:26:37.688Z,21.30
2018-07-30T22:29:06.205Z,21.20
2018-07-30T22:31:34.633Z,21.20
2018-07-30T22:34:03.011Z,21.10
2018-07-30T22:36:31.516Z,21.20
2018-07-30T22:39:00.552Z,21.20
2018-07-30T22:41:29.264Z,21.10
2018-07-30T22:43:59.104Z,21.20
2018-07-30T22:46:27.500Z,21.30
2018-07-30T22:48:55.848Z,21.40
2018-07-30T22:51:25.108Z,21.40
2018-07-30T22:53:53.588Z,21.50
2018-07-30T22:56:22.224Z,21.60
2018-07-30T22:58:50.724Z,21.50
2018-07-30T23:01:19.436Z,21.50
2018-07-30T23:03:47.992Z,21.50
2018-07-30T23:06:16.560Z,21.50
2018-07-30T23:08:45.041Z,21.30
2018-07-30T23:11:13.434Z,21.30
2018-07-30T23:13:41.836Z,21.10
2018-07-30T23:16:10.393Z,21.30
2018-07-30T23:18:38.756Z,21.10
2018-07-30T23:21:07.374Z,21.00
2018-07-30T23:23:35.756Z,21.00
2018-07-30T23:26:04.504Z,21.10
2018-07-30T23:28:32.923Z,21.00
2018-07-30T23:33:29.908Z,20.90
2018-07-30T23:35:58.790Z,20.80
2018-07-30T23:38:27.232Z,20.90
2018-07-30T23:40:55.639Z,20.80
2018-07-30T23:43:24.492Z,20.90
2018-07-30T23:45:52.920Z,21.00
2018-07-30T23:48:21.544Z,21.00
2018-07-30T23:50:50.216Z,20.90
2018-07-30T23:53:18.958Z,20.90
2018-07-30T23:55:47.524Z,20.90
2018-07-30T23:58:16.294Z,20.90
